Time;durP1;ratioP1;P1;durP2;ratioP2;P2;SDS_P1;SDS_P2;PMS_P1;PMS_P2;Temp;Humidity;BMP_temperature;BMP_pressure;BME280_temperature;BME280_humidity;BME280_pressure;Samples;Min_cycle;Max_cycle;Signal;HPM_P1;HPM_P2
2022/08/15 00:01:10;;;;;;;25.23;16.07;;;20.40;99.90;;;;;;4912446;29;20235;-80
2022/08/15 00:03:51;;;;;;;25.07;16.60;;;20.40;99.90;;;;;;4921993;29;20298;-80
2022/08/15 00:06:45;;;;;;;24.53;16.27;;;20.40;99.90;;;;;;4912150;29;20230;-83
2022/08/15 00:09:23;;;;;;;26.63;17.27;;;20.40;99.90;;;;;;4910672;29;20199;-85
2022/08/15 00:12:10;;;;;;;25.40;17.00;;;20.40;99.90;;;;;;4915920;29;20218;-82
2022/08/15 00:14:57;;;;;;;24.00;16.80;;;20.40;99.90;;;;;;4916918;29;20215;-82
2022/08/15 00:17:25;;;;;;;24.90;16.90;;;20.30;99.90;;;;;;4915927;29;20203;-81
2022/08/15 00:20:13;;;;;;;25.10;17.37;;;20.30;99.90;;;;;;4909387;29;20207;-78
2022/08/15 00:23:00;;;;;;;23.40;16.70;;;20.30;99.90;;;;;;4902687;29;20200;-82
2022/08/15 00:25:29;;;;;;;26.83;17.87;;;20.30;99.90;;;;;;4906184;29;20219;-82
2022/08/15 00:28:01;;;;;;;27.07;17.53;;;20.30;99.90;;;;;;4913156;29;20243;-80
2022/08/15 00:30:29;;;;;;;27.80;17.23;;;20.30;99.90;;;;;;4911448;29;20203;-82
2022/08/15 00:33:15;;;;;;;30.47;17.80;;;20.30;99.90;;;;;;4912453;29;20207;-83
2022/08/15 00:35:52;;;;;;;27.27;17.67;;;20.20;99.90;;;;;;4897974;29;20200;-85
2022/08/15 00:38:39;;;;;;;26.40;17.30;;;20.20;99.90;;;;;;4898324;29;20292;-84
2022/08/15 00:44:05;;;;;;;28.40;17.43;;;20.20;99.90;;;;;;4903338;29;20566;-84
2022/08/15 00:46:35;;;;;;;25.57;18.37;;;20.10;99.90;;;;;;4900153;29;20292;-85
2022/08/15 00:49:03;;;;;;;25.13;17.97;;;20.10;99.90;;;;;;4917025;29;20202;-85
2022/08/15 00:51:52;;;;;;;28.40;18.40;;;20.10;99.90;;;;;;4916047;29;20310;-82
2022/08/15 00:54:49;;;;;;;25.40;18.17;;;20.10;99.90;;;;;;4916669;29;20286;-86
2022/08/15 00:57:28;;;;;;;27.77;18.20;;;20.10;99.90;;;;;;4907539;29;20247;-85
2022/08/15 01:00:21;;;;;;;28.60;18.67;;;20.10;99.90;;;;;;4896311;29;20204;-85
2022/08/15 01:03:07;;;;;;;27.33;18.00;;;20.10;99.90;;;;;;4896619;29;20646;-83
2022/08/15 01:05:46;;;;;;;25.33;18.23;;;20.10;99.90;;;;;;4896457;29;20223;-83
2022/08/15 01:08:20;;;;;;;27.63;17.50;;;20.10;99.90;;;;;;4896798;29;20276;-84
2022/08/15 01:10:59;;;;;;;29.13;18.60;;;20.10;99.90;;;;;;4898139;29;20283;-85
2022/08/15 01:13:32;;;;;;;25.87;17.93;;;20.00;99.90;;;;;;4912247;29;20205;-79
2022/08/15 01:16:22;;;;;;;25.13;17.50;;;20.00;99.90;;;;;;4897601;29;20199;-82
2022/08/15 01:19:32;;;;;;;25.87;17.23;;;20.00;99.90;;;;;;4897201;29;20204;-82
2022/08/15 01:22:23;;;;;;;26.43;18.00;;;20.00;99.90;;;;;;4912481;29;20665;-81
2022/08/15 01:24:53;;;;;;;27.37;18.60;;;20.00;99.90;;;;;;4915349;29;20322;-80
2022/08/15 01:27:45;;;;;;;27.53;19.23;;;20.00;99.90;;;;;;4916297;29;20219;-82
2022/08/15 01:30:22;;;;;;;24.37;17.17;;;20.00;99.90;;;;;;4915259;29;20293;-83
2022/08/15 01:33:09;;;;;;;27.57;17.80;;;20.00;99.90;;;;;;4916411;29;20650;-82
2022/08/15 01:35:36;;;;;;;28.57;18.23;;;20.00;99.90;;;;;;4915126;29;20208;-81
2022/08/15 01:38:35;;;;;;;26.83;18.07;;;20.00;99.90;;;;;;4931033;29;20235;-82
2022/08/15 01:41:36;;;;;;;27.80;17.97;;;19.90;99.90;;;;;;4918155;29;20203;-82
2022/08/15 01:44:20;;;;;;;26.37;17.63;;;19.90;99.90;;;;;;4934511;29;20227;-84
2022/08/15 01:47:13;;;;;;;27.63;18.00;;;19.90;99.90;;;;;;4920315;29;20259;-82
2022/08/15 01:49:53;;;;;;;26.23;17.00;;;19.90;99.90;;;;;;4918622;29;20222;-82
2022/08/15 01:52:29;;;;;;;26.13;17.27;;;19.90;99.90;;;;;;4918174;29;20665;-82
2022/08/15 01:55:20;;;;;;;25.40;18.07;;;19.80;99.90;;;;;;4920699;29;20649;-81
2022/08/15 01:57:49;;;;;;;24.27;17.27;;;19.80;99.90;;;;;;4918315;29;20701;-81
2022/08/15 02:00:17;;;;;;;27.50;18.20;;;19.80;99.90;;;;;;4919820;29;20271;-82
2022/08/15 02:02:46;;;;;;;22.70;17.03;;;19.80;99.90;;;;;;4922405;29;20229;-84
2022/08/15 02:05:14;;;;;;;22.50;16.70;;;19.80;99.90;;;;;;4941286;29;20242;-81
2022/08/15 02:07:44;;;;;;;24.30;17.47;;;19.80;99.90;;;;;;4918781;29;20310;-85
2022/08/15 02:10:43;;;;;;;22.97;16.63;;;19.70;99.90;;;;;;4918380;29;20191;-86
2022/08/15 02:13:15;;;;;;;26.50;17.93;;;19.70;99.90;;;;;;4918249;29;20195;-87
2022/08/15 02:15:51;;;;;;;21.57;16.87;;;19.70;99.90;;;;;;4919346;29;20207;-86
2022/08/15 02:18:18;;;;;;;26.17;18.57;;;19.70;99.90;;;;;;4918916;29;20188;-85
2022/08/15 02:20:47;;;;;;;24.30;18.03;;;19.70;99.90;;;;;;4918232;29;20298;-84
2022/08/15 02:23:17;;;;;;;28.43;17.73;;;19.70;99.90;;;;;;4933918;29;20204;-82
2022/08/15 02:25:47;;;;;;;25.87;18.13;;;19.70;99.90;;;;;;4931062;29;20223;-85
2022/08/15 02:28:15;;;;;;;27.30;18.43;;;19.70;99.90;;;;;;4922309;29;20224;-80
2022/08/15 02:31:16;;;;;;;30.77;18.80;;;19.60;99.90;;;;;;4932432;29;20203;-86
2022/08/15 02:34:16;;;;;;;26.90;18.73;;;19.60;99.90;;;;;;4917548;29;20196;-82
2022/08/15 02:36:48;;;;;;;27.53;18.33;;;19.70;99.90;;;;;;4917630;29;20235;-85
2022/08/15 02:39:19;;;;;;;25.73;18.07;;;19.70;99.90;;;;;;4918652;29;20207;-85
2022/08/15 02:41:50;;;;;;;26.07;17.93;;;19.60;99.90;;;;;;4934664;29;20295;-86
2022/08/15 02:44:21;;;;;;;28.07;18.20;;;19.70;99.90;;;;;;4919044;29;20282;-85
2022/08/15 02:46:51;;;;;;;26.97;18.60;;;19.60;99.90;;;;;;4949328;29;20212;-80
2022/08/15 02:49:34;;;;;;;26.57;18.23;;;19.60;99.90;;;;;;4951606;29;20197;-82
2022/08/15 02:52:15;;;;;;;26.50;18.00;;;19.70;99.90;;;;;;4920389;29;20211;-85
2022/08/15 02:54:48;;;;;;;24.63;17.23;;;19.60;99.90;;;;;;4925131;29;20231;-85
2022/08/15 02:57:27;;;;;;;28.07;18.00;;;19.60;99.90;;;;;;4924334;29;20224;-84
2022/08/15 02:59:57;;;;;;;25.27;18.37;;;19.60;99.90;;;;;;4918762;29;20196;-86
2022/08/15 03:02:26;;;;;;;23.00;17.33;;;19.60;99.90;;;;;;4917785;29;20231;-86
2022/08/15 03:04:58;;;;;;;27.60;18.77;;;19.60;99.90;;;;;;4917102;29;20223;-84
2022/08/15 03:07:26;;;;;;;23.03;17.60;;;19.60;99.90;;;;;;4918331;29;20191;-85
2022/08/15 03:09:58;;;;;;;25.77;17.30;;;19.60;99.90;;;;;;4916760;29;20610;-83
2022/08/15 03:12:26;;;;;;;27.37;18.37;;;19.60;99.90;;;;;;4918213;29;20270;-86
2022/08/15 03:15:00;;;;;;;27.97;18.90;;;19.60;99.90;;;;;;4916925;29;20279;-85
2022/08/15 03:17:29;;;;;;;25.77;18.87;;;19.60;99.90;;;;;;4917150;29;20195;-86
2022/08/15 03:20:03;;;;;;;27.80;18.00;;;19.60;99.90;;;;;;4916995;29;20606;-87
2022/08/15 03:22:43;;;;;;;24.60;17.63;;;19.60;99.90;;;;;;4932505;29;20291;-85
2022/08/15 03:25:15;;;;;;;30.13;18.67;;;19.60;99.90;;;;;;4916590;29;20216;-86
2022/08/15 03:27:55;;;;;;;23.97;17.77;;;19.60;99.90;;;;;;4932446;29;20595;-86
2022/08/15 03:30:22;;;;;;;24.50;17.47;;;19.60;99.90;;;;;;4932583;29;20208;-86
2022/08/15 03:32:54;;;;;;;28.17;18.23;;;19.60;99.90;;;;;;4901216;29;20255;-86
2022/08/15 03:35:23;;;;;;;31.40;18.33;;;19.60;99.90;;;;;;4917024;29;20723;-89
2022/08/15 03:37:56;;;;;;;29.73;18.83;;;19.60;99.90;;;;;;4917186;29;20186;-88
2022/08/15 03:40:28;;;;;;;26.13;17.77;;;19.60;99.90;;;;;;4916949;29;20255;-87
2022/08/15 03:43:12;;;;;;;24.90;17.67;;;19.60;99.90;;;;;;4918012;29;20200;-88
2022/08/15 03:45:43;;;;;;;26.37;18.07;;;19.60;99.90;;;;;;4916598;29;20689;-86
2022/08/15 03:48:10;;;;;;;24.23;17.50;;;19.60;99.90;;;;;;4916836;29;20604;-85
2022/08/15 03:50:53;;;;;;;23.70;17.13;;;19.60;99.90;;;;;;4932367;29;20207;-88
2022/08/15 03:53:30;;;;;;;26.00;17.60;;;19.60;99.90;;;;;;4917655;29;20609;-87
2022/08/15 03:56:01;;;;;;;26.90;17.83;;;19.50;99.90;;;;;;4916945;29;20550;-84
2022/08/15 03:58:29;;;;;;;26.30;17.77;;;19.50;99.90;;;;;;4918781;29;20256;-87
2022/08/15 04:01:06;;;;;;;27.27;17.77;;;19.50;99.90;;;;;;4932878;29;20231;-86
2022/08/15 04:03:36;;;;;;;29.27;17.87;;;19.50;99.90;;;;;;4900604;29;20537;-86
2022/08/15 04:06:06;;;;;;;26.13;17.60;;;19.50;99.90;;;;;;4916612;29;20251;-85
2022/08/15 04:08:41;;;;;;;26.23;17.53;;;19.50;99.90;;;;;;4916811;29;20217;-83
2022/08/15 04:11:30;;;;;;;24.77;17.20;;;19.50;99.90;;;;;;4916473;29;20203;-81
2022/08/15 04:14:06;;;;;;;24.97;17.00;;;19.60;99.90;;;;;;4931885;29;20226;-84
2022/08/15 04:16:55;;;;;;;40.33;19.43;;;19.60;99.90;;;;;;4915775;29;20196;-83
2022/08/15 04:19:31;;;;;;;28.97;17.57;;;19.60;99.90;;;;;;4917150;29;20214;-87
2022/08/15 04:22:12;;;;;;;24.37;17.33;;;19.60;99.90;;;;;;4917197;29;20196;-84
2022/08/15 04:25:12;;;;;;;31.77;17.90;;;19.70;99.90;;;;;;4917185;29;20307;-86
2022/08/15 04:27:49;;;;;;;27.93;17.50;;;19.70;99.90;;;;;;4917242;29;20211;-82
2022/08/15 04:30:24;;;;;;;25.50;17.27;;;19.70;99.90;;;;;;4932430;29;20190;-87
2022/08/15 04:33:04;;;;;;;24.73;17.20;;;19.80;99.90;;;;;;4916844;29;20230;-85
2022/08/15 04:35:58;;;;;;;25.93;17.63;;;19.80;99.90;;;;;;4915650;29;20654;-85
2022/08/15 04:38:25;;;;;;;26.70;18.10;;;19.80;99.90;;;;;;4916898;29;20222;-83
2022/08/15 04:40:54;;;;;;;26.37;18.37;;;19.90;99.90;;;;;;4917283;29;20192;-84
2022/08/15 04:43:42;;;;;;;25.10;18.13;;;19.90;99.90;;;;;;4915601;29;20210;-82
2022/08/15 04:46:10;;;;;;;28.50;17.70;;;20.00;99.90;;;;;;4915610;29;20228;-84
2022/08/15 04:48:52;;;;;;;23.87;17.50;;;20.00;99.90;;;;;;4916733;29;20203;-83
2022/08/15 04:51:19;;;;;;;26.37;17.90;;;20.00;99.90;;;;;;4915819;29;20294;-84
2022/08/15 04:54:00;;;;;;;26.10;17.90;;;20.10;99.90;;;;;;4916304;29;20645;-81
2022/08/15 04:56:28;;;;;;;22.77;17.10;;;20.10;99.90;;;;;;4916467;29;20196;-82
2022/08/15 04:59:15;;;;;;;23.13;16.93;;;20.10;99.90;;;;;;4916895;29;20195;-81
2022/08/15 05:02:07;;;;;;;26.40;17.83;;;20.20;99.90;;;;;;4915242;29;20589;-81
2022/08/15 05:04:54;;;;;;;26.67;17.83;;;20.30;99.90;;;;;;4916739;29;20673;-83
2022/08/15 05:07:21;;;;;;;27.30;17.37;;;20.30;99.90;;;;;;4915350;29;20307;-82
2022/08/15 05:09:58;;;;;;;25.77;16.50;;;20.30;99.90;;;;;;4915208;29;20192;-82
2022/08/15 05:12:37;;;;;;;25.13;17.40;;;20.40;99.90;;;;;;4931276;29;20206;-82
2022/08/15 05:15:21;;;;;;;28.30;17.60;;;20.50;99.90;;;;;;4916484;29;20281;-81
2022/08/15 05:17:49;;;;;;;27.40;17.27;;;20.50;99.90;;;;;;4919084;29;20665;-80
2022/08/15 05:20:26;;;;;;;24.33;17.27;;;20.60;99.90;;;;;;4934682;29;20569;-82
2022/08/15 05:23:11;;;;;;;26.20;17.93;;;20.70;99.90;;;;;;4919066;29;20203;-82
2022/08/15 05:25:41;;;;;;;27.70;16.90;;;20.80;99.90;;;;;;4918787;29;20219;-81
2022/08/15 05:28:09;;;;;;;32.50;17.60;;;20.80;99.90;;;;;;4919994;29;20587;-82
2022/08/15 05:30:59;;;;;;;25.80;16.93;;;20.80;99.90;;;;;;4905616;29;20206;-84
2022/08/15 05:33:42;;;;;;;23.57;17.33;;;20.80;99.90;;;;;;4918798;29;20211;-85
2022/08/15 05:36:25;;;;;;;23.87;16.73;;;20.90;99.90;;;;;;4918174;29;20234;-83
2022/08/15 05:39:16;;;;;;;27.30;17.93;;;20.90;99.90;;;;;;4912669;29;20199;-84
2022/08/15 05:42:18;;;;;;;26.60;17.20;;;20.90;99.90;;;;;;4916335;29;20200;-84
2022/08/15 05:45:46;;;;;;;22.20;15.90;;;21.00;99.90;;;;;;4885842;29;20211;-85
2022/08/15 05:48:23;;;;;;;25.53;16.10;;;21.10;99.90;;;;;;4906461;29;20214;-85
2022/08/15 05:51:15;;;;;;;24.67;16.80;;;21.10;99.90;;;;;;4901164;29;20219;-82
2022/08/15 05:54:03;;;;;;;23.13;16.40;;;21.30;99.90;;;;;;4910068;29;20622;-82
2022/08/15 05:57:07;;;;;;;27.27;17.00;;;21.40;99.90;;;;;;4901110;29;20608;-83
2022/08/15 05:59:50;;;;;;;22.73;15.67;;;21.50;99.90;;;;;;4827945;29;20660;-84
2022/08/15 06:02:27;;;;;;;23.27;16.10;;;21.60;99.90;;;;;;4857093;23;20247;-83
2022/08/15 06:05:17;;;;;;;29.03;16.47;;;21.80;99.90;;;;;;4957991;29;20265;-83
2022/08/15 06:07:49;;;;;;;20.80;16.00;;;21.90;99.90;;;;;;4941149;29;20216;-81
2022/08/15 06:10:51;;;;;;;29.50;17.50;;;22.10;99.90;;;;;;4944282;29;20194;-84
2022/08/15 06:13:27;;;;;;;18.60;14.83;;;22.10;99.90;;;;;;4958030;29;20198;-82
2022/08/15 06:15:59;;;;;;;21.83;15.37;;;22.30;99.90;;;;;;4940506;29;20230;-84
2022/08/15 06:18:29;;;;;;;23.53;15.70;;;22.30;99.90;;;;;;4958014;29;20545;-85
2022/08/15 06:21:15;;;;;;;19.90;15.93;;;22.40;99.90;;;;;;4926189;29;20656;-87
2022/08/15 06:24:04;;;;;;;22.77;15.93;;;22.30;99.90;;;;;;4940348;29;20510;-85
2022/08/15 06:26:49;;;;;;;19.80;15.60;;;22.30;99.90;;;;;;4939702;28;20763;-86
2022/08/15 06:29:48;;;;;;;24.17;15.33;;;22.30;99.90;;;;;;4935172;29;20202;-88
2022/08/15 06:32:25;;;;;;;22.63;16.10;;;22.30;99.90;;;;;;4974338;28;20666;-86
2022/08/15 06:35:19;;;;;;;23.83;15.90;;;22.50;99.90;;;;;;4964729;28;20213;-86
2022/08/15 06:38:21;;;;;;;20.60;16.37;;;22.60;99.90;;;;;;4956361;28;20209;-86
2022/08/15 06:41:15;;;;;;;22.47;15.87;;;22.80;99.90;;;;;;4956753;29;20190;-86
2022/08/15 06:43:45;;;;;;;22.83;16.27;;;22.80;99.90;;;;;;4954033;29;20209;-89
2022/08/15 06:46:13;;;;;;;21.40;15.50;;;22.80;99.90;;;;;;4941071;29;20691;-86
2022/08/15 06:49:09;;;;;;;22.83;16.40;;;23.00;99.90;;;;;;4944218;29;20205;-90
2022/08/15 06:51:38;;;;;;;21.33;16.30;;;22.90;99.90;;;;;;4959764;29;20245;-85
2022/08/15 06:54:22;;;;;;;21.77;15.80;;;23.00;99.90;;;;;;4939879;29;20189;-89
2022/08/15 06:57:13;;;;;;;27.08;16.90;;;22.90;99.90;;;;;;4957363;29;20210;-86
2022/08/15 06:59:58;;;;;;;23.15;16.63;;;23.10;99.90;;;;;;4939863;29;20205;-85
2022/08/15 07:02:26;;;;;;;22.43;16.43;;;23.10;99.90;;;;;;4940178;28;20241;-77
2022/08/15 07:05:13;;;;;;;22.88;16.50;;;23.20;99.90;;;;;;4957817;29;20237;-87
2022/08/15 07:08:33;;;;;;;28.40;17.90;;;23.40;99.90;;;;;;4939921;29;20194;-89
2022/08/15 07:11:15;;;;;;;27.88;16.20;;;23.60;99.90;;;;;;4864953;29;20196;-86
2022/08/15 07:14:04;;;;;;;22.70;16.50;;;23.70;99.90;;;;;;4874998;29;20300;-86
2022/08/15 07:17:15;;;;;;;19.83;15.03;;;23.70;99.90;;;;;;4863877;29;20269;-86
2022/08/15 07:19:42;;;;;;;21.98;16.17;;;23.80;99.90;;;;;;4875236;29;20205;-86
2022/08/15 07:22:24;;;;;;;20.52;15.50;;;23.80;99.90;;;;;;4881302;29;20220;-86
2022/08/15 07:25:08;;;;;;;24.27;15.88;;;23.80;99.90;;;;;;4882923;29;20196;-85
2022/08/15 07:27:37;;;;;;;19.23;14.93;;;23.80;99.90;;;;;;4898286;29;20239;-84
2022/08/15 07:30:37;;;;;;;21.73;16.52;;;23.80;99.90;;;;;;4882092;29;20208;-86
2022/08/15 07:33:04;;;;;;;21.23;16.05;;;24.00;99.90;;;;;;4897179;29;20227;-86
2022/08/15 07:35:41;;;;;;;23.73;16.13;;;24.10;99.90;;;;;;4928323;23;21444;-86
2022/08/15 07:38:10;;;;;;;19.33;15.23;;;24.30;99.90;;;;;;4955720;28;20296;-86
2022/08/15 07:41:23;;;;;;;21.77;15.77;;;24.50;99.90;;;;;;4943880;29;20225;-85
2022/08/15 07:43:56;;;;;;;17.75;14.50;;;24.60;99.90;;;;;;4939190;29;20210;-87
2022/08/15 07:46:39;;;;;;;18.42;14.85;;;24.60;99.90;;;;;;4938800;29;20222;-86
2022/08/15 07:49:31;;;;;;;20.25;15.20;;;24.70;99.90;;;;;;4956249;29;20250;-85
2022/08/15 07:52:13;;;;;;;24.05;15.20;;;24.50;99.90;;;;;;4940018;28;20595;-87
2022/08/15 07:57:41;;;;;;;19.48;15.00;;;24.40;99.90;;;;;;4953652;29;20210;-84
2022/08/15 08:00:28;;;;;;;19.50;15.33;;;24.40;99.90;;;;;;4937956;29;20201;-82
2022/08/15 08:03:21;;;;;;;26.50;15.90;;;24.50;99.90;;;;;;4937895;29;20257;-86
2022/08/15 08:06:01;;;;;;;20.73;15.32;;;24.60;99.90;;;;;;4938198;29;20218;-87
2022/08/15 08:09:12;;;;;;;21.20;15.07;;;24.40;99.90;;;;;;4941100;23;20245;-87
2022/08/15 08:11:54;;;;;;;20.17;15.20;;;24.50;99.90;;;;;;4932989;29;20294;-86
2022/08/15 08:15:02;;;;;;;17.38;14.40;;;24.50;99.90;;;;;;4934914;29;20209;-86
2022/08/15 08:18:13;;;;;;;19.73;15.48;;;24.60;99.90;;;;;;4892967;29;20200;-82
2022/08/15 08:21:01;;;;;;;20.05;15.40;;;24.80;99.90;;;;;;4851072;29;20222;-85
2022/08/15 08:23:47;;;;;;;22.65;15.27;;;25.00;99.90;;;;;;4839754;29;20210;-84
2022/08/15 08:27:34;;;;;;;19.10;14.80;;;25.40;99.90;;;;;;4849784;29;20293;-85
2022/08/15 08:30:28;;;;;;;18.58;15.38;;;25.70;99.90;;;;;;4774067;29;20303;-84
2022/08/15 08:33:52;;;;;;;18.98;15.10;;;25.50;99.90;;;;;;4781930;29;20217;-86
2022/08/15 08:44:46;;;;;;;21.15;14.23;;;25.40;99.90;;;;;;1338447;26;20262;-86
2022/08/15 08:47:44;;;;;;;18.50;14.30;;;25.60;99.90;;;;;;4944142;23;20305;-85
2022/08/15 08:54:12;;;;;;;20.55;14.25;;;25.40;99.90;;;;;;4853463;29;20211;-84
2022/08/15 08:57:04;;;;;;;17.60;14.02;;;25.70;99.90;;;;;;4889889;29;20236;-84
2022/08/15 08:59:43;;;;;;;19.45;13.85;;;26.00;99.90;;;;;;4878442;29;20221;-85
2022/08/15 09:02:45;;;;;;;17.27;14.38;;;26.20;99.90;;;;;;4879114;29;20304;-82
2022/08/15 09:05:49;;;;;;;21.83;14.73;;;26.50;99.90;;;;;;4822425;29;20294;-85
2022/08/15 09:08:51;;;;;;;20.02;14.15;;;26.90;99.90;;;;;;4807349;29;20219;-83
2022/08/15 09:11:26;;;;;;;19.25;14.50;;;27.20;99.90;;;;;;4825519;23;20327;-84
2022/08/15 09:14:22;;;;;;;18.42;13.85;;;27.80;99.90;;;;;;4954470;23;20248;-80
2022/08/15 09:17:36;;;;;;;19.42;13.77;;;28.40;99.90;;;;;;4923195;29;20258;-83
2022/08/15 09:24:05;;;;;;;18.48;12.90;;;29.00;99.90;;;;;;4922804;29;20207;-84
2022/08/15 09:27:43;;;;;;;18.50;12.95;;;29.50;99.90;;;;;;4876261;29;20244;-84
2022/08/15 09:30:27;;;;;;;23.10;14.13;;;29.90;99.90;;;;;;4796613;29;20527;-83
2022/08/15 09:33:55;;;;;;;17.45;13.43;;;29.70;99.90;;;;;;4987916;23;20238;-84
2022/08/15 09:36:55;;;;;;;18.25;13.27;;;29.60;99.90;;;;;;4953189;23;20700;-84
2022/08/15 09:39:47;;;;;;;14.35;12.35;;;29.40;99.90;;;;;;4948165;28;20221;-84
2022/08/15 09:42:29;;;;;;;14.55;12.38;;;29.20;99.90;;;;;;4943600;28;20199;-83
2022/08/15 09:45:21;;;;;;;15.82;12.45;;;29.10;99.90;;;;;;4942650;28;20354;-83
2022/08/15 09:48:37;;;;;;;16.65;11.85;;;29.00;99.90;;;;;;4943351;29;20194;-87
2022/08/15 09:51:22;;;;;;;15.75;11.55;;;28.80;99.90;;;;;;4942198;28;20289;-87
2022/08/15 09:54:21;;;;;;;20.23;12.40;;;28.90;99.90;;;;;;4945381;28;20278;-81
2022/08/15 09:57:27;;;;;;;17.38;11.60;;;29.10;99.90;;;;;;4961586;28;20690;-83
2022/08/15 10:00:22;;;;;;;15.60;11.93;;;29.30;99.90;;;;;;4933904;29;20636;-82
2022/08/15 10:03:05;;;;;;;15.80;11.55;;;29.90;99.90;;;;;;4937605;29;20277;-84
2022/08/15 10:06:00;;;;;;;18.40;12.13;;;30.00;99.90;;;;;;4937553;28;20202;-85
2022/08/15 10:09:33;;;;;;;13.05;11.13;;;29.80;99.90;;;;;;4921971;29;20206;-84
2022/08/15 10:12:06;;;;;;;20.08;12.50;;;30.00;99.90;;;;;;4848603;29;20202;-81
2022/08/15 10:14:52;;;;;;;16.77;12.00;;;29.90;99.90;;;;;;4845307;29;20197;-80
2022/08/15 10:17:39;;;;;;;14.48;12.02;;;30.10;99.90;;;;;;4899417;23;20641;-80
2022/08/15 10:20:40;;;;;;;15.90;11.45;;;30.10;99.90;;;;;;4957176;29;20205;-80
2022/08/15 10:23:29;;;;;;;19.75;12.48;;;30.30;99.90;;;;;;4939409;29;20305;-82
2022/08/15 10:29:49;;;;;;;21.67;12.48;;;30.90;99.90;;;;;;4998594;23;20782;-81
2022/08/15 10:33:04;;;;;;;17.27;11.77;;;31.20;99.90;;;;;;4939640;29;20265;-80
2022/08/15 10:36:13;;;;;;;14.43;11.48;;;31.50;99.90;;;;;;4971412;23;20707;-79
2022/08/15 10:39:33;;;;;;;14.25;11.05;;;31.70;99.90;;;;;;5000858;23;20326;-78
2022/08/15 10:42:19;;;;;;;15.18;11.93;;;31.80;99.90;;;;;;4917049;29;20195;-81
2022/08/15 10:45:29;;;;;;;16.05;11.43;;;32.30;99.90;;;;;;4904867;29;20200;-82
2022/08/15 10:48:33;;;;;;;14.15;10.98;;;32.40;99.90;;;;;;4898702;29;20228;-74
2022/08/15 10:52:14;;;;;;;13.50;11.20;;;32.30;99.90;;;;;;4910161;29;20307;-88
2022/08/15 10:55:09;;;;;;;15.13;11.13;;;31.40;99.90;;;;;;4885861;29;20204;-85
2022/08/15 11:01:31;;;;;;;13.65;11.02;;;30.10;99.90;;;;;;4895319;29;20283;-77
2022/08/15 11:04:17;;;;;;;16.80;11.52;;;29.60;99.90;;;;;;4858086;29;20200;-78
2022/08/15 11:07:28;;;;;;;15.57;11.63;;;29.30;99.90;;;;;;4869929;29;20213;-82
2022/08/15 11:10:03;;;;;;;14.60;11.68;;;29.20;99.90;;;;;;4879244;29;20275;-83
2022/08/15 11:12:33;;;;;;;17.20;12.10;;;29.00;99.90;;;;;;4864502;29;20204;-83
2022/08/15 11:15:31;;;;;;;14.70;11.63;;;29.00;99.90;;;;;;4892495;29;20200;-79
2022/08/15 11:18:04;;;;;;;15.85;11.20;;;29.10;99.90;;;;;;4872809;29;20283;-79
2022/08/15 11:20:53;;;;;;;14.30;11.57;;;29.50;99.90;;;;;;4847835;29;20193;-78
2022/08/15 11:23:39;;;;;;;16.17;11.27;;;30.20;99.90;;;;;;4868865;29;20700;-79
2022/08/15 11:26:27;;;;;;;14.57;11.02;;;31.00;99.90;;;;;;4863087;29;20249;-84
2022/08/15 11:29:15;;;;;;;15.65;11.57;;;31.50;99.90;;;;;;4844418;29;20289;-73
2022/08/15 11:31:55;;;;;;;13.73;10.80;;;32.10;99.90;;;;;;4844377;29;20209;-82
2022/08/15 11:34:46;;;;;;;14.40;10.57;;;32.90;99.90;;;;;;4843546;29;20209;-86
2022/08/15 11:37:22;;;;;;;13.38;9.80;;;32.90;99.90;;;;;;4834385;29;20209;-87
2022/08/15 11:40:38;;;;;;;13.75;9.77;;;32.30;99.90;;;;;;4879560;29;20622;-83
2022/08/15 11:43:13;;;;;;;13.82;9.73;;;31.90;99.90;;;;;;4803043;29;20203;-81
2022/08/15 11:45:46;;;;;;;13.30;9.90;;;32.10;99.90;;;;;;4768852;30;22353;-78
2022/08/15 11:48:36;;;;;;;14.38;9.70;;;32.20;99.90;;;;;;4789029;29;20235;-77
2022/08/15 11:51:09;;;;;;;13.93;9.10;;;32.30;99.90;;;;;;4781045;29;20206;-82
2022/08/15 11:54:10;;;;;;;11.32;9.18;;;32.10;99.90;;;;;;4795642;29;20212;-79
2022/08/15 12:00:27;;;;;;;15.38;10.15;;;31.60;99.90;;;;;;5042746;23;20233;-80
2022/08/15 12:03:01;;;;;;;13.13;10.15;;;31.20;99.90;;;;;;4919563;29;20238;-79
2022/08/15 12:05:54;;;;;;;15.98;10.48;;;30.90;99.90;;;;;;4936429;29;20198;-79
2022/08/15 12:08:47;;;;;;;14.23;10.15;;;30.50;99.90;;;;;;4918570;29;20187;-81
2022/08/15 12:11:23;;;;;;;13.63;9.70;;;30.50;99.90;;;;;;4909777;29;20193;-79
2022/08/15 12:14:26;;;;;;;17.00;10.02;;;30.10;99.90;;;;;;4935523;29;20196;-78
2022/08/15 12:19:46;;;;;;;13.93;10.45;;;29.90;99.90;;;;;;4967342;23;20224;-80
2022/08/15 12:22:40;;;;;;;16.63;10.30;;;30.00;99.90;;;;;;4956736;28;20246;-79
2022/08/15 12:25:18;;;;;;;14.82;10.15;;;30.10;99.90;;;;;;4971340;28;20660;-78
2022/08/15 12:28:05;;;;;;;13.60;10.93;;;30.10;99.90;;;;;;4964757;28;20229;-80
2022/08/15 12:31:17;;;;;;;16.15;10.82;;;29.80;99.90;;;;;;4953046;29;20204;-79
2022/08/15 12:33:45;;;;;;;12.30;10.20;;;29.90;99.90;;;;;;4923098;29;20202;-79
2022/08/15 12:36:18;;;;;;;12.98;10.13;;;30.00;99.90;;;;;;4943631;28;20731;-79
2022/08/15 12:39:17;;;;;;;16.90;11.18;;;30.10;99.90;;;;;;4952881;28;20260;-79
2022/08/15 12:41:51;;;;;;;13.05;10.13;;;30.30;99.90;;;;;;4937195;29;20744;-74
2022/08/15 12:44:39;;;;;;;15.25;10.25;;;30.40;99.90;;;;;;4952234;28;20201;-73
2022/08/15 12:47:14;;;;;;;12.75;10.65;;;30.40;99.90;;;;;;4973523;28;20662;-80
2022/08/15 12:50:11;;;;;;;14.38;10.00;;;30.50;99.90;;;;;;4973741;28;20224;-79
2022/08/15 12:52:48;;;;;;;14.27;10.02;;;30.60;99.90;;;;;;4875598;29;20284;-79
2022/08/15 12:55:23;;;;;;;13.25;9.55;;;30.50;99.90;;;;;;4869623;29;20199;-79
2022/08/15 12:58:19;;;;;;;16.80;9.27;;;30.60;99.90;;;;;;4895008;29;20744;-80
2022/08/15 13:05:32;;;;;;;13.48;9.98;;;31.00;99.90;;;;;;4810619;29;20207;-90
2022/08/15 13:08:19;;;;;;;14.00;9.45;;;31.40;99.90;;;;;;4873447;29;20239;-82
2022/08/15 13:10:54;;;;;;;14.27;9.32;;;31.80;99.90;;;;;;4879603;29;20207;-74
2022/08/15 13:13:40;;;;;;;16.77;9.38;;;32.10;99.90;;;;;;4866441;29;20212;-78
2022/08/15 13:16:10;;;;;;;12.50;9.65;;;32.60;99.90;;;;;;4864539;29;20326;-75
2022/08/15 13:19:03;;;;;;;11.82;8.85;;;32.50;99.90;;;;;;4876371;29;20337;-73
2022/08/15 13:24:27;;;;;;;12.80;8.93;;;32.20;99.90;;;;;;4874841;29;20208;-76
2022/08/15 13:26:55;;;;;;;12.93;9.25;;;31.80;99.90;;;;;;4862682;29;20308;-72
2022/08/15 13:29:23;;;;;;;15.90;9.60;;;31.50;99.90;;;;;;4914590;29;20210;-80
2022/08/15 13:31:51;;;;;;;12.00;9.02;;;31.40;99.90;;;;;;4953052;29;20380;-75
2022/08/15 13:34:19;;;;;;;14.88;9.35;;;31.30;99.90;;;;;;4956268;28;20252;-75
2022/08/15 13:36:58;;;;;;;16.10;9.88;;;30.90;99.90;;;;;;4944812;23;20289;-85
2022/08/15 13:39:53;;;;;;;14.20;9.60;;;30.70;99.90;;;;;;4947056;29;20190;-83
2022/08/15 13:42:55;;;;;;;14.07;9.45;;;31.00;99.90;;;;;;4959840;28;20220;-80
2022/08/15 13:46:25;;;;;;;16.83;9.40;;;31.40;99.90;;;;;;4948105;28;20198;-78
2022/08/15 13:49:09;;;;;;;13.60;8.60;;;32.00;99.90;;;;;;4946876;23;20237;-80
2022/08/15 14:01:48;;;;;;;14.98;8.90;;;32.20;99.90;;;;;;4939637;29;20293;-80
2022/08/15 14:04:35;;;;;;;13.15;8.60;;;32.40;99.90;;;;;;4963512;23;20257;-77
2022/08/15 14:07:06;;;;;;;14.88;8.25;;;32.70;99.90;;;;;;4940152;29;20313;-78
2022/08/15 14:09:35;;;;;;;13.55;7.90;;;32.70;99.90;;;;;;4940134;29;20202;-81
2022/08/15 14:12:25;;;;;;;15.10;8.70;;;32.60;99.90;;;;;;4940155;29;20194;-79
2022/08/15 14:14:53;;;;;;;13.50;8.00;;;32.30;99.90;;;;;;4940347;29;20257;-80
2022/08/15 14:17:50;;;;;;;12.50;8.18;;;32.30;99.90;;;;;;4921168;29;20211;-78
2022/08/15 14:44:12;;;;;;;8.80;6.60;;;31.60;99.90;;;;;;4808432;23;20226;-78
2022/08/15 14:47:03;;;;;;;11.65;6.65;;;31.70;99.90;;;;;;4945014;28;20229;-79
2022/08/15 14:49:47;;;;;;;10.10;7.13;;;32.10;99.90;;;;;;4947048;28;20200;-80
2022/08/15 14:52:50;;;;;;;10.02;6.47;;;32.20;99.90;;;;;;4953210;23;20316;-79
2022/08/15 14:55:19;;;;;;;9.57;6.50;;;32.50;99.90;;;;;;4946466;28;20641;-78
2022/08/15 14:57:49;;;;;;;10.10;6.55;;;32.30;99.90;;;;;;4942564;28;20201;-78
2022/08/15 15:00:46;;;;;;;10.38;7.03;;;32.40;99.90;;;;;;4939298;29;20206;-79
2022/08/15 15:03:24;;;;;;;8.93;6.38;;;32.50;99.90;;;;;;4944203;28;20289;-80
2022/08/15 15:06:02;;;;;;;8.05;6.25;;;32.40;99.90;;;;;;4942556;29;20208;-78
2022/08/15 15:08:52;;;;;;;8.07;6.10;;;32.60;99.90;;;;;;4959748;28;20224;-81
2022/08/15 15:11:21;;;;;;;7.60;6.00;;;32.70;99.90;;;;;;4943629;29;20222;-78